Time;durP1;ratioP1;P1;durP2;ratioP2;P2;SDS_P1;SDS_P2;PMS_P1;PMS_P2;Temp;Humidity;BMP_temperature;BMP_pressure;BME280_temperature;BME280_humidity;BME280_pressure;Samples;Min_cycle;Max_cycle;Signal;HPM_P1;HPM_P2
2024/03/08 00:00:24;;;;;;;11.05;4.93;;;6.70;72.10;;;;;;5079578;28;20119;-67
2024/03/08 00:02:53;;;;;;;12.15;5.35;;;6.70;72.00;;;;;;5085526;28;20031;-66
2024/03/08 00:05:20;;;;;;;11.18;4.95;;;6.60;72.00;;;;;;5079906;28;20085;-66
2024/03/08 00:07:46;;;;;;;9.35;4.95;;;6.60;72.00;;;;;;5083175;28;20035;-67
2024/03/08 00:10:13;;;;;;;12.55;5.35;;;6.60;71.90;;;;;;5082954;28;20036;-67
2024/03/08 00:12:43;;;;;;;13.68;5.28;;;6.60;71.90;;;;;;5083936;28;20150;-66
2024/03/08 00:15:13;;;;;;;11.23;6.00;;;6.50;71.80;;;;;;5081155;28;20032;-66
2024/03/08 00:17:40;;;;;;;10.68;5.30;;;6.50;71.90;;;;;;5078834;28;20111;-66
2024/03/08 00:20:09;;;;;;;7.78;4.60;;;6.50;71.80;;;;;;5087925;28;20024;-66
2024/03/08 00:22:36;;;;;;;10.75;5.53;;;6.50;71.80;;;;;;5086989;28;20704;-67
2024/03/08 00:25:08;;;;;;;9.38;5.50;;;6.50;71.80;;;;;;5083662;28;20056;-63
2024/03/08 00:27:34;;;;;;;11.85;5.00;;;6.40;71.80;;;;;;5081937;28;20039;-63
2024/03/08 00:30:00;;;;;;;9.00;4.90;;;6.40;71.80;;;;;;5087938;28;20024;-63
2024/03/08 00:32:31;;;;;;;9.27;4.43;;;6.40;71.70;;;;;;5089189;28;20099;-63
2024/03/08 00:34:57;;;;;;;10.10;5.18;;;6.40;71.70;;;;;;5088174;28;20026;-63
2024/03/08 00:37:24;;;;;;;7.97;5.47;;;6.40;71.60;;;;;;5088950;28;20034;-63
2024/03/08 00:39:50;;;;;;;11.25;4.90;;;6.40;71.60;;;;;;5086651;28;20024;-63
2024/03/08 00:42:17;;;;;;;8.57;5.10;;;6.40;71.60;;;;;;5085214;28;20024;-62
2024/03/08 00:44:43;;;;;;;13.90;5.25;;;6.40;71.50;;;;;;5082073;28;20027;-63
2024/03/08 00:47:09;;;;;;;10.32;4.68;;;6.30;71.40;;;;;;5084359;28;20433;-63
2024/03/08 00:49:37;;;;;;;12.07;4.75;;;6.30;71.40;;;;;;5074142;28;20032;-62
2024/03/08 00:52:07;;;;;;;13.07;5.72;;;6.30;71.40;;;;;;5084484;28;20027;-62
2024/03/08 00:54:35;;;;;;;7.20;4.45;;;6.30;71.30;;;;;;5086599;28;20056;-63
2024/03/08 00:57:02;;;;;;;10.30;4.80;;;6.30;71.30;;;;;;5085877;28;20035;-63
2024/03/08 00:59:29;;;;;;;8.90;5.53;;;6.30;71.30;;;;;;5086713;28;20455;-63
2024/03/08 01:01:55;;;;;;;12.65;5.55;;;6.20;71.10;;;;;;5086576;28;20364;-63
2024/03/08 01:04:22;;;;;;;7.00;4.43;;;6.20;71.10;;;;;;5085788;28;20043;-63
2024/03/08 01:06:48;;;;;;;9.32;4.82;;;6.20;71.00;;;;;;5087456;28;20111;-62
2024/03/08 01:09:17;;;;;;;9.20;4.65;;;6.20;71.00;;;;;;5086134;28;20119;-62
2024/03/08 01:11:44;;;;;;;9.90;4.90;;;6.20;70.90;;;;;;5078999;28;20056;-63
2024/03/08 01:14:10;;;;;;;14.77;4.90;;;6.10;70.90;;;;;;5066809;28;20474;-63
2024/03/08 01:16:36;;;;;;;9.50;4.82;;;6.10;70.90;;;;;;5087862;28;20016;-63
2024/03/08 01:19:03;;;;;;;9.23;4.97;;;6.10;70.90;;;;;;5087375;28;20127;-62
2024/03/08 01:21:29;;;;;;;9.10;5.03;;;6.10;70.90;;;;;;5085954;28;20085;-62
2024/03/08 01:23:55;;;;;;;6.88;5.00;;;6.10;70.80;;;;;;5080811;28;20036;-62
2024/03/08 01:26:20;;;;;;;10.77;6.05;;;6.10;70.80;;;;;;5083950;28;20056;-66
2024/03/08 01:28:46;;;;;;;8.70;5.38;;;6.00;70.70;;;;;;5083775;28;21348;-67
2024/03/08 01:31:13;;;;;;;12.15;5.07;;;6.00;70.60;;;;;;5084333;28;20463;-67
2024/03/08 01:33:40;;;;;;;8.27;4.65;;;6.00;70.60;;;;;;5086064;28;20032;-66
2024/03/08 01:36:06;;;;;;;8.93;5.13;;;6.00;70.50;;;;;;5084059;28;20126;-66
2024/03/08 01:38:32;;;;;;;8.65;5.18;;;6.00;70.40;;;;;;5083261;28;20166;-67
2024/03/08 01:40:58;;;;;;;14.25;5.90;;;6.00;70.40;;;;;;5086473;28;20107;-66
2024/03/08 01:43:28;;;;;;;13.88;5.72;;;6.00;70.40;;;;;;5084368;28;20029;-67
2024/03/08 01:45:58;;;;;;;8.95;5.70;;;5.90;70.30;;;;;;5083050;28;20110;-67
2024/03/08 01:48:24;;;;;;;15.50;5.85;;;5.90;70.40;;;;;;5082698;28;20063;-66
2024/03/08 01:50:52;;;;;;;11.15;5.55;;;5.90;70.40;;;;;;5087593;28;20028;-66
2024/03/08 01:53:19;;;;;;;15.85;5.75;;;5.90;70.30;;;;;;5083396;28;20028;-67
2024/03/08 01:55:48;;;;;;;8.68;4.45;;;5.90;70.30;;;;;;5083912;28;20393;-67
2024/03/08 01:58:17;;;;;;;11.77;5.68;;;5.80;70.30;;;;;;5089195;28;20048;-66
2024/03/08 02:00:49;;;;;;;9.13;5.18;;;5.80;70.30;;;;;;5086085;28;20386;-66
2024/03/08 02:03:17;;;;;;;11.48;4.78;;;5.70;70.30;;;;;;5089215;28;20467;-67
2024/03/08 02:05:43;;;;;;;9.73;5.03;;;5.70;70.30;;;;;;5092175;28;20035;-66
2024/03/08 02:08:14;;;;;;;11.30;5.28;;;5.70;70.30;;;;;;5090639;28;20035;-63
2024/03/08 02:10:44;;;;;;;11.45;5.47;;;5.70;70.40;;;;;;5090120;28;20032;-63
2024/03/08 02:13:11;;;;;;;7.65;4.93;;;5.60;70.30;;;;;;5088339;28;20036;-63
2024/03/08 02:15:59;;;;;;;9.52;5.53;;;5.60;70.30;;;;;;5090314;28;20020;-62
2024/03/08 02:18:25;;;;;;;16.65;6.22;;;5.70;70.30;;;;;;5086829;28;20127;-62
2024/03/08 02:21:05;;;;;;;10.57;5.35;;;5.60;70.30;;;;;;5088996;28;20040;-62
2024/03/08 02:23:31;;;;;;;8.35;4.75;;;5.60;70.40;;;;;;5089250;28;20043;-67
2024/03/08 02:25:57;;;;;;;9.85;6.22;;;5.60;70.30;;;;;;5092059;28;20418;-67
2024/03/08 02:28:27;;;;;;;9.57;5.25;;;5.50;70.30;;;;;;5089676;28;20467;-67
2024/03/08 02:30:56;;;;;;;11.77;6.03;;;5.50;70.30;;;;;;5087048;28;20032;-66
2024/03/08 02:33:23;;;;;;;9.77;5.60;;;5.50;70.30;;;;;;5087432;28;20043;-67
2024/03/08 02:35:50;;;;;;;9.85;5.65;;;5.50;70.40;;;;;;5092106;28;20493;-66
2024/03/08 02:38:21;;;;;;;13.60;6.65;;;5.40;70.40;;;;;;5090714;28;20016;-66
2024/03/08 02:40:51;;;;;;;10.38;6.28;;;5.40;70.50;;;;;;5088758;28;20020;-67
2024/03/08 02:43:19;;;;;;;11.57;6.22;;;5.40;70.40;;;;;;5091433;28;20031;-67
2024/03/08 02:45:45;;;;;;;11.70;6.13;;;5.40;70.40;;;;;;5090023;28;20036;-67
2024/03/08 02:48:12;;;;;;;9.63;5.65;;;5.40;70.50;;;;;;5086854;28;20020;-66
2024/03/08 02:50:44;;;;;;;11.48;6.55;;;5.30;70.50;;;;;;5090371;28;20152;-67
2024/03/08 02:53:11;;;;;;;10.98;5.93;;;5.30;70.50;;;;;;5091386;28;20495;-66
2024/03/08 02:55:39;;;;;;;8.13;4.70;;;5.30;70.50;;;;;;5087013;28;20020;-66
2024/03/08 02:58:05;;;;;;;11.20;5.38;;;5.30;70.50;;;;;;5080917;28;20024;-67
2024/03/08 03:00:32;;;;;;;9.55;5.28;;;5.20;70.50;;;;;;5084886;28;20041;-67
2024/03/08 03:02:58;;;;;;;9.68;4.68;;;5.20;70.60;;;;;;5088750;28;20028;-67
2024/03/08 03:05:24;;;;;;;12.73;6.40;;;5.20;70.60;;;;;;5077818;28;20536;-67
2024/03/08 03:07:51;;;;;;;10.23;5.40;;;5.10;70.60;;;;;;5086566;28;20516;-66
2024/03/08 03:10:17;;;;;;;12.43;6.45;;;5.10;70.60;;;;;;5088370;28;20502;-67
2024/03/08 03:12:44;;;;;;;11.88;5.93;;;5.10;70.60;;;;;;5089103;28;20040;-67
2024/03/08 03:15:13;;;;;;;8.90;4.82;;;5.10;70.70;;;;;;5086638;28;20027;-67
2024/03/08 03:17:50;;;;;;;10.10;5.70;;;5.10;70.70;;;;;;5089574;28;20131;-66
2024/03/08 03:20:22;;;;;;;8.52;5.82;;;5.10;70.70;;;;;;5083210;28;20020;-66
2024/03/08 03:22:52;;;;;;;12.98;6.35;;;5.10;70.70;;;;;;5083466;28;20032;-66
2024/03/08 03:25:33;;;;;;;12.98;6.00;;;5.00;70.70;;;;;;5074943;28;20042;-66
2024/03/08 03:27:59;;;;;;;10.27;6.00;;;5.00;70.70;;;;;;5083853;28;20054;-66
2024/03/08 03:30:32;;;;;;;10.73;6.63;;;5.00;70.60;;;;;;5080291;28;20038;-66
2024/03/08 03:33:06;;;;;;;11.63;6.63;;;5.00;70.70;;;;;;5082454;28;20028;-63
2024/03/08 03:35:34;;;;;;;10.13;5.80;;;5.00;70.70;;;;;;5091012;28;20025;-66
2024/03/08 03:38:08;;;;;;;11.43;6.20;;;5.00;70.70;;;;;;5090478;28;20099;-66
2024/03/08 03:40:35;;;;;;;13.07;6.70;;;4.90;70.80;;;;;;5089701;28;20032;-62
2024/03/08 03:43:02;;;;;;;11.60;6.78;;;4.90;70.80;;;;;;5082551;28;20032;-66
2024/03/08 03:45:28;;;;;;;10.25;6.68;;;4.90;70.80;;;;;;5084888;28;20035;-66
2024/03/08 03:47:54;;;;;;;9.27;5.95;;;4.90;70.80;;;;;;5084913;28;20027;-66
2024/03/08 03:50:21;;;;;;;12.02;5.68;;;4.90;70.80;;;;;;5083864;28;20047;-66
2024/03/08 03:52:48;;;;;;;12.40;6.50;;;4.90;70.80;;;;;;5087073;28;20482;-66
2024/03/08 03:55:15;;;;;;;12.35;6.90;;;4.90;70.80;;;;;;5078100;28;20028;-66
2024/03/08 03:57:41;;;;;;;14.23;6.97;;;4.90;70.80;;;;;;5074888;28;20511;-66
2024/03/08 04:00:10;;;;;;;9.27;5.57;;;4.90;70.80;;;;;;5087110;28;20031;-66
2024/03/08 04:02:39;;;;;;;12.32;6.72;;;4.90;70.80;;;;;;5087502;28;20047;-66
2024/03/08 04:05:09;;;;;;;10.25;5.50;;;4.90;70.80;;;;;;5076033;28;20455;-63
2024/03/08 04:07:35;;;;;;;11.60;6.20;;;4.90;70.80;;;;;;5074722;28;20032;-62
2024/03/08 04:10:03;;;;;;;10.65;5.85;;;4.80;70.80;;;;;;5082040;28;20040;-63
2024/03/08 04:12:29;;;;;;;15.90;7.60;;;4.80;70.80;;;;;;5077494;28;20065;-62
2024/03/08 04:14:56;;;;;;;12.50;6.63;;;4.80;70.80;;;;;;5088002;28;20028;-62
2024/03/08 04:17:24;;;;;;;13.38;6.65;;;4.80;70.80;;;;;;5075692;28;20474;-62
2024/03/08 04:19:50;;;;;;;16.23;8.68;;;4.80;70.80;;;;;;5087312;28;20052;-62
2024/03/08 04:22:17;;;;;;;11.40;6.00;;;4.80;70.80;;;;;;5070977;28;20033;-62
2024/03/08 04:24:44;;;;;;;10.77;6.00;;;4.70;70.80;;;;;;5082979;28;20441;-62
2024/03/08 04:27:10;;;;;;;11.00;6.15;;;4.70;70.80;;;;;;5083602;28;20035;-66
2024/03/08 04:29:36;;;;;;;12.30;7.35;;;4.70;70.90;;;;;;5082626;28;20372;-66
2024/03/08 04:32:06;;;;;;;12.93;7.22;;;4.70;70.90;;;;;;5083586;28;20024;-66
2024/03/08 04:34:34;;;;;;;12.90;6.65;;;4.70;70.90;;;;;;5081079;28;20024;-66
2024/03/08 04:37:01;;;;;;;12.10;6.22;;;4.70;70.90;;;;;;5077048;28;20532;-66
2024/03/08 04:39:30;;;;;;;9.52;5.22;;;4.70;70.90;;;;;;5081658;28;20088;-66
2024/03/08 04:42:03;;;;;;;9.30;6.00;;;4.70;70.90;;;;;;5087544;28;20039;-66
2024/03/08 04:44:29;;;;;;;;;;;4.70;70.90;;;;;;5081631;28;20147;-66
2024/03/08 04:46:55;;;;;;;10.15;5.95;;;4.60;70.90;;;;;;5071674;28;19908;-66
2024/03/08 04:49:22;;;;;;;10.27;6.10;;;4.60;71.00;;;;;;5079815;28;20040;-66
2024/03/08 04:51:48;;;;;;;16.48;7.22;;;4.60;71.00;;;;;;5084164;28;20035;-66
2024/03/08 04:54:14;;;;;;;11.27;6.00;;;4.60;71.00;;;;;;5083961;28;20024;-66
2024/03/08 04:56:40;;;;;;;10.63;5.65;;;4.60;71.00;;;;;;5087099;28;20066;-66
2024/03/08 04:59:08;;;;;;;16.40;6.70;;;4.60;71.00;;;;;;5087472;28;20180;-66
2024/03/08 05:01:34;;;;;;;15.40;7.43;;;4.60;70.90;;;;;;5085568;28;20464;-66
2024/03/08 05:04:00;;;;;;;11.27;6.20;;;4.60;71.00;;;;;;5076919;28;20056;-66
2024/03/08 05:06:25;;;;;;;11.60;5.90;;;4.60;71.00;;;;;;5086705;28;20552;-66
2024/03/08 05:08:51;;;;;;;12.63;5.53;;;4.60;71.00;;;;;;5088976;28;20062;-66
2024/03/08 05:11:17;;;;;;;9.55;7.07;;;4.60;71.00;;;;;;5078478;28;20525;-66
2024/03/08 05:13:45;;;;;;;12.95;6.70;;;4.60;71.10;;;;;;5079866;28;20498;-62
2024/03/08 05:16:11;;;;;;;13.98;6.25;;;4.50;71.10;;;;;;5081223;28;20016;-62
2024/03/08 05:18:37;;;;;;;10.73;6.85;;;4.50;71.10;;;;;;5083793;28;20025;-62
2024/03/08 05:21:03;;;;;;;10.32;6.55;;;4.50;71.10;;;;;;5085283;28;20252;-62
2024/03/08 05:23:30;;;;;;;10.18;6.25;;;4.50;71.10;;;;;;5085825;28;20039;-62
2024/03/08 05:25:57;;;;;;;10.55;6.05;;;4.50;71.20;;;;;;5084602;28;20031;-66
2024/03/08 05:28:23;;;;;;;11.45;6.10;;;4.50;71.10;;;;;;5084197;28;20028;-66
2024/03/08 05:30:48;;;;;;;11.68;6.30;;;4.50;71.10;;;;;;5080119;28;20086;-66
2024/03/08 05:33:14;;;;;;;11.25;6.50;;;4.50;71.10;;;;;;5083272;28;20046;-66
2024/03/08 05:35:40;;;;;;;11.48;4.90;;;4.50;71.20;;;;;;5085646;28;20483;-66
2024/03/08 05:38:06;;;;;;;10.90;5.97;;;4.50;71.10;;;;;;5079604;28;20039;-66
2024/03/08 05:40:33;;;;;;;9.63;5.78;;;4.50;71.20;;;;;;5082508;28;20090;-66
2024/03/08 05:42:59;;;;;;;13.50;6.65;;;4.40;71.10;;;;;;5081149;28;20368;-66
2024/03/08 05:45:25;;;;;;;11.32;6.45;;;4.40;71.20;;;;;;5088661;28;20020;-66
2024/03/08 05:47:52;;;;;;;10.50;6.43;;;4.40;71.80;;;;;;5084488;28;20031;-66
2024/03/08 05:50:19;;;;;;;14.00;6.78;;;4.40;71.20;;;;;;5075663;28;20030;-66
2024/03/08 05:52:45;;;;;;;7.90;5.10;;;4.40;71.30;;;;;;5082845;28;20040;-66
2024/03/08 05:55:14;;;;;;;13.40;7.10;;;4.40;71.30;;;;;;5087990;28;20028;-66
2024/03/08 05:57:40;;;;;;;10.45;6.13;;;4.40;71.30;;;;;;5086346;28;20051;-66
2024/03/08 06:00:06;;;;;;;16.30;6.55;;;4.40;71.30;;;;;;5082441;28;20025;-66
2024/03/08 06:02:33;;;;;;;16.10;7.60;;;4.40;71.30;;;;;;5075757;28;20078;-66
2024/03/08 06:04:58;;;;;;;12.75;6.65;;;4.40;71.30;;;;;;5082951;28;20060;-67
2024/03/08 06:07:24;;;;;;;11.55;7.07;;;4.40;71.30;;;;;;5086685;28;20032;-67
2024/03/08 06:09:50;;;;;;;10.73;7.03;;;4.40;71.30;;;;;;5084202;28;20131;-66
2024/03/08 06:12:19;;;;;;;11.70;6.28;;;4.40;71.40;;;;;;5086232;28;20055;-67
2024/03/08 06:14:45;;;;;;;9.73;5.47;;;4.40;71.40;;;;;;5064454;28;20471;-63
2024/03/08 06:17:11;;;;;;;14.82;7.60;;;4.40;71.30;;;;;;5075271;28;20024;-63
2024/03/08 06:19:37;;;;;;;12.60;7.85;;;4.30;71.30;;;;;;5087815;28;20028;-62
2024/03/08 06:22:05;;;;;;;12.05;6.68;;;4.30;71.20;;;;;;5081427;28;20514;-63
2024/03/08 06:24:32;;;;;;;9.15;5.43;;;4.40;71.20;;;;;;5086793;28;20414;-67
2024/03/08 06:26:57;;;;;;;9.60;7.00;;;4.40;71.30;;;;;;5080382;28;20041;-66
2024/03/08 06:29:23;;;;;;;10.73;6.22;;;4.40;71.30;;;;;;5084962;28;20121;-66
2024/03/08 06:31:49;;;;;;;17.10;7.38;;;4.40;71.40;;;;;;5079689;28;20041;-62
2024/03/08 06:34:15;;;;;;;10.13;5.85;;;4.30;71.30;;;;;;5084266;28;20038;-62
2024/03/08 06:36:41;;;;;;;11.43;6.35;;;4.40;71.40;;;;;;5052429;28;20119;-67
2024/03/08 06:39:10;;;;;;;17.05;7.30;;;4.40;71.30;;;;;;5082071;28;20054;-62
2024/03/08 06:41:38;;;;;;;13.80;7.00;;;4.40;71.20;;;;;;5085670;28;20032;-67
2024/03/08 06:44:05;;;;;;;12.68;6.47;;;4.40;71.20;;;;;;5077552;28;20390;-66
2024/03/08 06:46:30;;;;;;;12.80;6.85;;;4.40;71.20;;;;;;5089532;28;20111;-66
2024/03/08 06:48:56;;;;;;;13.57;7.50;;;4.40;71.20;;;;;;5089861;28;20600;-66
2024/03/08 06:51:22;;;;;;;11.25;6.38;;;4.40;71.20;;;;;;5088151;28;20028;-66
2024/03/08 06:53:49;;;;;;;15.18;6.45;;;4.50;71.10;;;;;;5086239;28;20040;-67
2024/03/08 06:56:15;;;;;;;12.88;6.68;;;4.50;71.00;;;;;;5080907;28;20029;-66
2024/03/08 06:58:41;;;;;;;11.43;6.35;;;4.60;71.00;;;;;;5090888;28;20045;-66
2024/03/08 07:01:07;;;;;;;11.65;6.68;;;4.60;71.00;;;;;;5090386;28;20111;-66
2024/03/08 07:03:33;;;;;;;16.08;7.70;;;4.60;71.00;;;;;;5086872;28;20035;-67
2024/03/08 07:05:59;;;;;;;9.90;5.82;;;4.60;71.00;;;;;;5088017;28;20032;-66
2024/03/08 07:08:26;;;;;;;9.05;7.07;;;4.60;70.90;;;;;;5081845;28;20032;-63
2024/03/08 07:10:53;;;;;;;19.73;9.15;;;4.60;70.90;;;;;;5082255;28;20651;-63
2024/03/08 07:13:18;;;;;;;12.90;7.68;;;4.70;70.90;;;;;;5090209;28;20391;-66
2024/03/08 07:15:45;;;;;;;11.57;6.35;;;4.70;70.90;;;;;;5091868;28;20036;-63
2024/03/08 07:18:14;;;;;;;12.60;7.18;;;4.70;70.90;;;;;;5089161;28;20056;-66
2024/03/08 07:20:41;;;;;;;11.73;7.20;;;4.80;70.90;;;;;;5091785;28;20387;-62
2024/03/08 07:23:07;;;;;;;11.43;7.38;;;4.80;70.80;;;;;;5091080;28;20043;-62
2024/03/08 07:25:35;;;;;;;10.48;5.88;;;4.80;70.70;;;;;;5083053;28;20073;-62
2024/03/08 07:28:00;;;;;;;14.93;7.43;;;4.80;70.70;;;;;;5082572;28;20039;-63
2024/03/08 07:33:12;;;;;;;12.05;7.20;;;4.90;70.70;;;;;;5085137;28;20065;-63
2024/03/08 07:35:38;;;;;;;17.67;7.28;;;5.00;70.70;;;;;;5087574;28;20028;-63
2024/03/08 07:38:09;;;;;;;11.63;5.97;;;5.00;70.60;;;;;;5071407;28;20475;-62
2024/03/08 07:40:44;;;;;;;14.00;7.22;;;5.10;70.50;;;;;;5089285;28;20384;-63
2024/03/08 07:43:11;;;;;;;15.40;6.82;;;5.20;70.50;;;;;;5091167;28;20406;-66
2024/03/08 07:45:40;;;;;;;11.30;7.18;;;5.20;70.30;;;;;;5086831;28;20039;-66
2024/03/08 07:48:10;;;;;;;18.38;8.00;;;5.20;70.20;;;;;;5083449;28;20333;-66
2024/03/08 07:50:40;;;;;;;15.23;6.93;;;5.30;70.30;;;;;;5088633;28;20051;-63
2024/03/08 07:53:09;;;;;;;12.05;5.72;;;5.30;70.10;;;;;;5088857;28;20024;-62
2024/03/08 07:55:35;;;;;;;14.57;7.00;;;5.40;70.10;;;;;;5087988;28;20032;-63
2024/03/08 07:58:06;;;;;;;13.13;6.45;;;5.40;70.00;;;;;;5088957;28;20024;-67
2024/03/08 08:00:31;;;;;;;20.40;7.30;;;5.40;70.00;;;;;;5080440;28;20509;-67
2024/03/08 08:02:57;;;;;;;11.95;7.18;;;5.40;70.00;;;;;;5080391;28;20099;-63
2024/03/08 08:05:23;;;;;;;14.18;7.43;;;5.50;70.00;;;;;;5087045;28;20032;-66
2024/03/08 08:07:49;;;;;;;13.20;6.05;;;5.60;70.00;;;;;;5079330;28;20032;-67
2024/03/08 08:10:21;;;;;;;13.25;6.75;;;5.60;69.80;;;;;;5069058;28;20028;-66
2024/03/08 08:12:50;;;;;;;12.68;6.40;;;5.70;69.70;;;;;;5080014;28;20402;-65
2024/03/08 08:15:15;;;;;;;13.90;7.25;;;5.80;69.60;;;;;;5083090;28;20135;-65
2024/03/08 08:17:42;;;;;;;16.55;8.02;;;5.80;69.40;;;;;;5086696;28;20035;-66
2024/03/08 08:20:11;;;;;;;10.93;6.47;;;5.90;69.40;;;;;;5083999;28;20016;-66
2024/03/08 08:22:40;;;;;;;12.70;6.68;;;6.00;69.40;;;;;;5078807;28;20479;-65
2024/03/08 08:25:07;;;;;;;14.77;7.38;;;6.00;69.20;;;;;;5077503;28;20064;-65
2024/03/08 08:27:33;;;;;;;12.65;6.60;;;6.10;69.30;;;;;;5084086;28;20031;-65
2024/03/08 08:29:59;;;;;;;13.68;6.32;;;6.20;69.20;;;;;;5089290;28;20024;-66
2024/03/08 08:32:25;;;;;;;12.70;7.32;;;6.20;69.10;;;;;;5082907;28;20028;-66
2024/03/08 08:34:50;;;;;;;11.65;6.72;;;6.30;69.00;;;;;;5075918;28;20029;-67
2024/03/08 08:37:16;;;;;;;12.85;6.90;;;6.30;68.90;;;;;;5082895;28;20036;-67
2024/03/08 08:39:42;;;;;;;8.00;5.43;;;6.40;68.80;;;;;;5092175;28;20027;-66
2024/03/08 08:42:11;;;;;;;11.60;6.30;;;6.40;68.70;;;;;;5087513;28;20038;-65
2024/03/08 08:44:36;;;;;;;16.77;8.48;;;6.50;68.70;;;;;;5087075;28;20030;-66
2024/03/08 08:47:03;;;;;;;11.20;6.28;;;6.60;68.60;;;;;;5076976;28;20475;-66
2024/03/08 08:49:30;;;;;;;14.65;8.10;;;6.70;68.50;;;;;;5083292;28;20479;-66
2024/03/08 08:51:58;;;;;;;10.43;5.53;;;6.80;68.40;;;;;;5086363;28;20028;-66
2024/03/08 08:54:24;;;;;;;15.43;7.15;;;6.90;68.40;;;;;;5079037;28;20036;-67
2024/03/08 08:56:50;;;;;;;13.52;7.22;;;7.00;68.20;;;;;;5088717;28;20023;-66
2024/03/08 08:59:19;;;;;;;10.52;7.30;;;7.10;68.00;;;;;;5085060;28;20028;-66
2024/03/08 09:01:48;;;;;;;13.85;6.47;;;7.20;67.90;;;;;;5084290;28;20591;-66
2024/03/08 09:04:14;;;;;;;11.20;6.45;;;7.30;67.70;;;;;;5079305;28;20024;-66
2024/03/08 09:06:43;;;;;;;16.58;6.95;;;7.40;67.60;;;;;;5081046;28;20036;-66
2024/03/08 09:09:10;;;;;;;14.10;6.53;;;7.60;67.50;;;;;;5083880;28;20082;-60
2024/03/08 09:11:41;;;;;;;13.93;7.15;;;7.70;67.20;;;;;;5081544;28;20044;-60
2024/03/08 09:14:07;;;;;;;12.48;6.05;;;7.80;67.10;;;;;;5066295;28;20025;-60
2024/03/08 09:16:33;;;;;;;15.55;6.85;;;7.90;67.00;;;;;;5081810;28;20036;-66
2024/03/08 09:18:59;;;;;;;11.57;6.05;;;8.10;66.80;;;;;;5079767;28;20437;-65
2024/03/08 09:21:26;;;;;;;13.32;6.90;;;8.20;66.70;;;;;;5085750;28;20367;-65
2024/03/08 09:23:51;;;;;;;10.70;5.22;;;8.40;66.40;;;;;;5088866;28;20024;-65
2024/03/08 09:26:17;;;;;;;13.75;6.00;;;8.50;66.20;;;;;;5089186;28;20172;-65
2024/03/08 09:28:43;;;;;;;10.80;6.45;;;8.60;66.00;;;;;;5089710;28;20021;-65
2024/03/08 09:31:11;;;;;;;13.10;6.43;;;8.60;65.70;;;;;;5086878;28;20115;-65
2024/03/08 09:33:39;;;;;;;9.55;6.03;;;8.70;65.50;;;;;;5084844;28;20059;-65
2024/03/08 09:36:07;;;;;;;14.68;6.47;;;8.70;65.40;;;;;;5083010;28;20024;-65
2024/03/08 09:38:34;;;;;;;14.02;6.25;;;8.80;65.30;;;;;;5087973;28;20028;-65
2024/03/08 09:41:01;;;;;;;8.48;5.13;;;8.90;65.30;;;;;;5072432;28;20382;-60
2024/03/08 09:43:28;;;;;;;24.67;7.85;;;9.10;65.10;;;;;;5087707;28;20131;-61
2024/03/08 09:45:55;;;;;;;15.15;7.13;;;9.20;64.80;;;;;;5087393;28;20531;-61
2024/03/08 09:48:22;;;;;;;11.80;6.65;;;9.40;64.60;;;;;;5085612;28;20039;-60
2024/03/08 09:50:49;;;;;;;15.07;7.13;;;9.50;63.80;;;;;;5084594;28;20044;-61
2024/03/08 09:53:15;;;;;;;16.15;6.82;;;9.60;64.00;;;;;;5086587;28;20052;-61
2024/03/08 09:55:44;;;;;;;11.32;6.32;;;9.70;64.00;;;;;;5085099;28;20028;-61
2024/03/08 10:01:01;;;;;;;12.50;6.50;;;9.90;63.40;;;;;;5088654;28;20035;-61
2024/03/08 10:03:28;;;;;;;10.00;5.53;;;10.00;63.30;;;;;;5087087;28;20025;-61
2024/03/08 10:05:56;;;;;;;9.57;4.88;;;10.10;62.90;;;;;;5078881;28;20420;-61
2024/03/08 10:08:22;;;;;;;11.90;6.13;;;10.10;62.80;;;;;;5083455;28;20028;-61
2024/03/08 10:10:49;;;;;;;12.35;5.25;;;10.20;62.60;;;;;;5079293;28;20439;-66
2024/03/08 10:13:16;;;;;;;10.57;6.28;;;10.30;62.40;;;;;;5088313;28;20040;-66
2024/03/08 10:15:43;;;;;;;9.98;5.47;;;10.40;62.20;;;;;;5086625;28;20024;-66
2024/03/08 10:18:10;;;;;;;11.18;6.20;;;10.50;62.10;;;;;;5079772;28;20171;-62
2024/03/08 10:20:36;;;;;;;13.25;6.07;;;10.70;62.00;;;;;;5091632;28;20032;-61
2024/03/08 10:23:05;;;;;;;9.48;5.45;;;10.90;61.40;;;;;;5092180;28;20040;-66
2024/03/08 10:25:31;;;;;;;12.13;5.82;;;11.00;61.40;;;;;;5075052;28;20044;-62
2024/03/08 10:27:57;;;;;;;10.25;5.32;;;11.20;61.20;;;;;;5085394;28;20040;-61
2024/03/08 10:30:23;;;;;;;10.35;5.80;;;11.30;61.00;;;;;;5092048;28;20247;-66
2024/03/08 10:32:49;;;;;;;10.55;5.40;;;11.50;60.70;;;;;;5091975;28;20063;-66
2024/03/08 10:35:16;;;;;;;11.30;5.85;;;11.60;60.50;;;;;;5098044;28;20036;-66
2024/03/08 10:37:46;;;;;;;11.30;5.72;;;11.70;60.10;;;;;;5069997;28;20494;-66
2024/03/08 10:40:20;;;;;;;9.77;5.55;;;11.80;60.20;;;;;;5082520;28;20065;-66
2024/03/08 10:42:56;;;;;;;8.40;5.28;;;12.00;60.00;;;;;;5088756;28;20050;-66
2024/03/08 10:45:52;;;;;;;9.10;4.50;;;12.20;59.80;;;;;;5085583;28;20395;-61
2024/03/08 10:48:32;;;;;;;8.25;4.38;;;12.30;59.50;;;;;;5082252;28;20028;-61
2024/03/08 10:50:59;;;;;;;11.73;5.88;;;12.40;58.70;;;;;;5084188;28;20038;-66
2024/03/08 10:53:29;;;;;;;10.35;5.32;;;12.60;58.70;;;;;;5080517;28;20455;-62
2024/03/08 10:55:57;;;;;;;7.50;4.88;;;12.70;58.80;;;;;;5082964;28;20166;-62
2024/03/08 10:58:27;;;;;;;10.18;5.45;;;12.80;58.00;;;;;;5077100;28;20391;-61
2024/03/08 11:00:53;;;;;;;11.70;5.13;;;12.80;57.60;;;;;;5082536;28;20025;-66
2024/03/08 11:03:41;;;;;;;10.45;5.53;;;12.90;57.60;;;;;;5082186;28;20503;-66
2024/03/08 11:06:38;;;;;;;10.88;4.63;;;13.00;57.30;;;;;;5080443;28;20028;-66
2024/03/08 11:09:35;;;;;;;7.30;4.82;;;13.10;57.50;;;;;;5085501;28;20036;-66
2024/03/08 11:12:19;;;;;;;8.10;4.90;;;13.20;57.10;;;;;;5083815;28;20483;-66
2024/03/08 11:14:48;;;;;;;7.97;4.30;;;13.50;57.20;;;;;;5084628;28;20028;-66
2024/03/08 11:17:17;;;;;;;8.73;5.32;;;13.70;56.90;;;;;;5089520;28;20035;-66
2024/03/08 11:19:47;;;;;;;10.38;4.80;;;13.90;56.70;;;;;;5084205;28;20257;-66
2024/03/08 11:22:27;;;;;;;6.88;4.35;;;14.20;56.40;;;;;;5086325;28;20055;-66
2024/03/08 11:24:53;;;;;;;10.52;4.65;;;14.30;55.70;;;;;;5083614;28;20413;-66
2024/03/08 11:27:22;;;;;;;8.50;4.10;;;14.40;55.60;;;;;;5089534;28;20103;-66
2024/03/08 11:30:09;;;;;;;8.60;4.40;;;14.40;55.30;;;;;;5082364;28;20475;-66
2024/03/08 11:32:36;;;;;;;13.65;5.68;;;14.50;54.90;;;;;;5087135;28;20028;-66
2024/03/08 11:35:05;;;;;;;7.80;4.57;;;14.60;54.60;;;;;;5091793;28;20503;-66
2024/03/08 11:37:35;;;;;;;7.68;3.75;;;14.60;53.80;;;;;;5083839;28;20026;-67
2024/03/08 11:40:04;;;;;;;6.25;3.97;;;14.70;53.90;;;;;;5085001;28;20020;-66
2024/03/08 11:42:30;;;;;;;7.97;4.28;;;14.70;53.60;;;;;;5073477;28;20627;-66
2024/03/08 11:44:56;;;;;;;6.80;3.90;;;14.70;53.10;;;;;;5091154;28;20095;-62
2024/03/08 11:47:22;;;;;;;7.40;3.97;;;14.80;52.60;;;;;;5081549;28;20455;-66
2024/03/08 11:49:48;;;;;;;7.57;4.25;;;14.90;52.30;;;;;;5090133;28;20028;-66
2024/03/08 11:52:16;;;;;;;9.05;4.65;;;14.90;51.70;;;;;;5081051;28;20116;-66
2024/03/08 11:54:50;;;;;;;9.27;4.55;;;14.90;51.20;;;;;;5092311;28;20020;-66
2024/03/08 11:57:18;;;;;;;8.23;4.55;;;14.90;51.00;;;;;;5082010;28;20463;-66
2024/03/08 11:59:53;;;;;;;9.93;4.90;;;14.90;51.20;;;;;;5067852;28;20019;-66
2024/03/08 12:02:19;;;;;;;10.85;5.20;;;15.10;51.40;;;;;;5085155;28;20028;-66
2024/03/08 12:04:48;;;;;;;8.85;4.07;;;15.30;50.80;;;;;;5092481;28;20028;-67
2024/03/08 12:07:14;;;;;;;10.63;5.20;;;15.40;50.40;;;;;;5082965;28;20040;-66
2024/03/08 12:09:46;;;;;;;8.50;4.30;;;15.50;49.90;;;;;;5088154;28;20029;-66
2024/03/08 12:12:12;;;;;;;7.18;4.03;;;15.60;49.60;;;;;;5083430;28;20048;-66
2024/03/08 12:14:42;;;;;;;6.88;3.75;;;15.70;49.40;;;;;;5089347;28;20410;-66
2024/03/08 12:17:09;;;;;;;8.70;3.88;;;15.80;48.50;;;;;;5089144;28;20123;-66
2024/03/08 12:19:38;;;;;;;6.38;3.55;;;15.70;48.50;;;;;;5086327;28;20339;-66
2024/03/08 12:22:10;;;;;;;6.53;4.07;;;15.70;48.70;;;;;;5086361;28;20038;-66
2024/03/08 12:24:37;;;;;;;8.13;4.38;;;15.70;48.90;;;;;;5089146;28;20059;-66
2024/03/08 12:27:18;;;;;;;8.63;4.00;;;15.80;48.50;;;;;;5087179;28;20115;-66
2024/03/08 12:29:44;;;;;;;8.60;4.47;;;15.80;47.90;;;;;;5083626;28;20450;-66
2024/03/08 12:32:11;;;;;;;9.48;5.55;;;15.80;47.70;;;;;;5087853;28;20380;-66
2024/03/08 12:34:37;;;;;;;10.02;4.30;;;15.80;47.50;;;;;;5081071;28;20032;-66
2024/03/08 12:37:06;;;;;;;8.27;3.95;;;15.90;47.10;;;;;;5078601;28;20024;-62
2024/03/08 12:39:33;;;;;;;11.35;5.32;;;16.00;47.10;;;;;;5073663;28;20046;-61
2024/03/08 12:41:59;;;;;;;9.20;3.72;;;16.00;46.60;;;;;;5079143;28;20103;-61
2024/03/08 12:44:26;;;;;;;9.00;4.82;;;16.00;46.50;;;;;;5076296;28;20025;-61
2024/03/08 12:46:53;;;;;;;10.27;5.55;;;16.00;46.50;;;;;;5078126;28;20028;-61
2024/03/08 12:49:22;;;;;;;5.45;3.38;;;16.20;46.60;;;;;;5073474;28;20025;-61
2024/03/08 12:51:48;;;;;;;9.00;4.88;;;16.20;46.20;;;;;;5081567;28;20040;-61
2024/03/08 12:54:14;;;;;;;8.32;3.45;;;16.20;46.10;;;;;;5076818;28;20051;-61
2024/03/08 12:56:40;;;;;;;7.65;4.28;;;16.10;46.40;;;;;;5078170;28;20409;-61